sensor_id;sensor_type;location;lat;lon;timestamp;P1;durP1;ratioP1;P2;durP2;ratioP2
7359;SDS011;3720;48.274;7.796;2023-04-26T00:01:15;10.13;;;6.53;;
7359;SDS011;3720;48.274;7.796;2023-04-26T00:03:48;10.90;;;7.07;;
7359;SDS011;3720;48.274;7.796;2023-04-26T00:06:20;8.77;;;6.43;;
7359;SDS011;3720;48.274;7.796;2023-04-26T00:08:52;8.95;;;6.65;;
7359;SDS011;3720;48.274;7.796;2023-04-26T00:11:24;6.50;;;4.97;;
7359;SDS011;3720;48.274;7.796;2023-04-26T00:13:56;5.10;;;4.07;;
7359;SDS011;3720;48.274;7.796;2023-04-26T00:16:28;4.85;;;3.95;;
7359;SDS011;3720;48.274;7.796;2023-04-26T00:19:02;7.05;;;4.00;;
7359;SDS011;3720;48.274;7.796;2023-04-26T00:21:34;5.22;;;4.10;;
7359;SDS011;3720;48.274;7.796;2023-04-26T00:24:07;7.72;;;3.72;;
7359;SDS011;3720;48.274;7.796;2023-04-26T00:26:39;3.50;;;3.00;;
7359;SDS011;3720;48.274;7.796;2023-04-26T00:29:11;4.90;;;3.05;;
7359;SDS011;3720;48.274;7.796;2023-04-26T00:31:43;3.17;;;2.80;;
7359;SDS011;3720;48.274;7.796;2023-04-26T00:34:17;3.00;;;2.70;;
7359;SDS011;3720;48.274;7.796;2023-04-26T00:36:49;2.97;;;2.67;;
7359;SDS011;3720;48.274;7.796;2023-04-26T00:39:22;4.25;;;3.10;;
7359;SDS011;3720;48.274;7.796;2023-04-26T00:41:54;3.17;;;2.88;;
7359;SDS011;3720;48.274;7.796;2023-04-26T00:44:26;4.60;;;3.08;;
7359;SDS011;3720;48.274;7.796;2023-04-26T00:46:58;3.72;;;3.10;;
7359;SDS011;3720;48.274;7.796;2023-04-26T00:49:31;3.25;;;2.92;;
7359;SDS011;3720;48.274;7.796;2023-04-26T00:52:04;3.40;;;2.92;;
7359;SDS011;3720;48.274;7.796;2023-04-26T00:54:36;7.03;;;4.63;;
7359;SDS011;3720;48.274;7.796;2023-04-26T00:57:08;6.95;;;5.68;;
7359;SDS011;3720;48.274;7.796;2023-04-26T00:59:42;5.88;;;4.85;;
7359;SDS011;3720;48.274;7.796;2023-04-26T01:02:14;6.55;;;5.07;;
7359;SDS011;3720;48.274;7.796;2023-04-26T01:04:47;6.00;;;4.75;;
7359;SDS011;3720;48.274;7.796;2023-04-26T01:07:20;5.97;;;4.82;;
7359;SDS011;3720;48.274;7.796;2023-04-26T01:09:52;6.68;;;5.35;;
7359;SDS011;3720;48.274;7.796;2023-04-26T01:12:25;8.00;;;5.57;;
7359;SDS011;3720;48.274;7.796;2023-04-26T01:14:58;8.10;;;5.40;;
7359;SDS011;3720;48.274;7.796;2023-04-26T01:17:30;6.50;;;5.00;;
7359;SDS011;3720;48.274;7.796;2023-04-26T01:20:05;8.40;;;5.03;;
7359;SDS011;3720;48.274;7.796;2023-04-26T01:22:40;6.97;;;4.60;;
7359;SDS011;3720;48.274;7.796;2023-04-26T01:25:13;5.00;;;4.10;;
7359;SDS011;3720;48.274;7.796;2023-04-26T01:27:46;5.82;;;3.90;;
7359;SDS011;3720;48.274;7.796;2023-04-26T01:30:18;5.18;;;3.90;;
7359;SDS011;3720;48.274;7.796;2023-04-26T01:32:50;6.30;;;3.88;;
7359;SDS011;3720;48.274;7.796;2023-04-26T01:35:22;5.22;;;4.05;;
7359;SDS011;3720;48.274;7.796;2023-04-26T01:37:55;6.78;;;3.80;;
7359;SDS011;3720;48.274;7.796;2023-04-26T01:40:27;5.45;;;3.83;;
7359;SDS011;3720;48.274;7.796;2023-04-26T01:42:59;4.50;;;3.88;;
7359;SDS011;3720;48.274;7.796;2023-04-26T01:45:32;6.00;;;3.90;;
7359;SDS011;3720;48.274;7.796;2023-04-26T01:48:04;5.22;;;4.38;;
7359;SDS011;3720;48.274;7.796;2023-04-26T01:50:37;6.72;;;4.10;;
7359;SDS011;3720;48.274;7.796;2023-04-26T01:53:10;5.63;;;4.57;;
7359;SDS011;3720;48.274;7.796;2023-04-26T01:55:42;7.30;;;4.45;;
7359;SDS011;3720;48.274;7.796;2023-04-26T01:58:14;7.85;;;5.18;;
7359;SDS011;3720;48.274;7.796;2023-04-26T02:00:46;8.00;;;5.18;;
7359;SDS011;3720;48.274;7.796;2023-04-26T02:03:18;9.05;;;6.30;;
7359;SDS011;3720;48.274;7.796;2023-04-26T02:05:50;9.48;;;5.88;;
7359;SDS011;3720;48.274;7.796;2023-04-26T02:08:23;7.72;;;5.80;;
7359;SDS011;3720;48.274;7.796;2023-04-26T02:10:55;8.05;;;5.63;;
7359;SDS011;3720;48.274;7.796;2023-04-26T02:13:28;7.18;;;5.60;;
7359;SDS011;3720;48.274;7.796;2023-04-26T02:16:00;9.30;;;5.95;;
7359;SDS011;3720;48.274;7.796;2023-04-26T02:18:32;8.35;;;5.82;;
7359;SDS011;3720;48.274;7.796;2023-04-26T02:21:06;9.32;;;5.43;;
7359;SDS011;3720;48.274;7.796;2023-04-26T02:23:39;9.68;;;6.22;;
7359;SDS011;3720;48.274;7.796;2023-04-26T02:26:11;8.30;;;6.47;;
7359;SDS011;3720;48.274;7.796;2023-04-26T02:28:44;8.52;;;6.00;;
7359;SDS011;3720;48.274;7.796;2023-04-26T02:31:16;8.93;;;6.30;;
7359;SDS011;3720;48.274;7.796;2023-04-26T02:33:47;9.90;;;6.20;;
7359;SDS011;3720;48.274;7.796;2023-04-26T02:36:19;8.98;;;6.18;;
7359;SDS011;3720;48.274;7.796;2023-04-26T02:38:53;10.18;;;6.85;;
7359;SDS011;3720;48.274;7.796;2023-04-26T02:41:25;10.05;;;7.28;;
7359;SDS011;3720;48.274;7.796;2023-04-26T02:43:57;13.65;;;8.75;;
7359;SDS011;3720;48.274;7.796;2023-04-26T02:46:29;14.57;;;7.88;;
7359;SDS011;3720;48.274;7.796;2023-04-26T02:49:01;11.63;;;8.27;;
7359;SDS011;3720;48.274;7.796;2023-04-26T02:51:33;12.60;;;8.40;;
7359;SDS011;3720;48.274;7.796;2023-04-26T02:54:06;12.55;;;8.80;;
7359;SDS011;3720;48.274;7.796;2023-04-26T02:56:38;15.30;;;9.48;;
7359;SDS011;3720;48.274;7.796;2023-04-26T02:59:10;13.13;;;9.43;;
7359;SDS011;3720;48.274;7.796;2023-04-26T03:01:41;16.63;;;9.80;;
7359;SDS011;3720;48.274;7.796;2023-04-26T03:04:13;15.52;;;10.00;;
7359;SDS011;3720;48.274;7.796;2023-04-26T03:06:46;17.40;;;10.88;;
7359;SDS011;3720;48.274;7.796;2023-04-26T03:09:20;17.63;;;11.75;;
7359;SDS011;3720;48.274;7.796;2023-04-26T03:11:52;20.48;;;13.50;;
7359;SDS011;3720;48.274;7.796;2023-04-26T03:14:24;21.88;;;13.70;;
7359;SDS011;3720;48.274;7.796;2023-04-26T03:16:56;23.48;;;13.60;;
7359;SDS011;3720;48.274;7.796;2023-04-26T03:19:28;21.77;;;14.02;;
7359;SDS011;3720;48.274;7.796;2023-04-26T03:22:00;20.73;;;13.10;;
7359;SDS011;3720;48.274;7.796;2023-04-26T03:24:33;22.60;;;14.10;;
7359;SDS011;3720;48.274;7.796;2023-04-26T03:27:05;26.02;;;13.30;;
7359;SDS011;3720;48.274;7.796;2023-04-26T03:29:38;21.40;;;12.60;;
7359;SDS011;3720;48.274;7.796;2023-04-26T03:32:09;21.33;;;12.80;;
7359;SDS011;3720;48.274;7.796;2023-04-26T03:34:41;19.30;;;12.43;;
7359;SDS011;3720;48.274;7.796;2023-04-26T03:37:13;21.63;;;12.60;;
7359;SDS011;3720;48.274;7.796;2023-04-26T03:39:47;19.60;;;12.35;;
7359;SDS011;3720;48.274;7.796;2023-04-26T03:42:19;17.95;;;11.70;;
7359;SDS011;3720;48.274;7.796;2023-04-26T03:44:51;19.63;;;12.30;;
7359;SDS011;3720;48.274;7.796;2023-04-26T03:47:23;19.50;;;12.93;;
7359;SDS011;3720;48.274;7.796;2023-04-26T03:49:55;20.17;;;13.55;;
7359;SDS011;3720;48.274;7.796;2023-04-26T03:52:28;20.00;;;12.88;;
7359;SDS011;3720;48.274;7.796;2023-04-26T03:55:01;22.20;;;13.55;;
7359;SDS011;3720;48.274;7.796;2023-04-26T03:57:33;19.27;;;13.07;;
7359;SDS011;3720;48.274;7.796;2023-04-26T04:00:06;21.80;;;14.40;;
7359;SDS011;3720;48.274;7.796;2023-04-26T04:02:41;24.05;;;14.23;;
7359;SDS011;3720;48.274;7.796;2023-04-26T04:05:13;21.92;;;14.25;;
7359;SDS011;3720;48.274;7.796;2023-04-26T04:07:45;22.45;;;14.32;;
7359;SDS011;3720;48.274;7.796;2023-04-26T04:10:18;20.40;;;13.75;;
7359;SDS011;3720;48.274;7.796;2023-04-26T04:12:52;22.35;;;14.07;;
7359;SDS011;3720;48.274;7.796;2023-04-26T04:15:24;22.73;;;13.90;;
7359;SDS011;3720;48.274;7.796;2023-04-26T04:17:55;21.02;;;13.88;;
7359;SDS011;3720;48.274;7.796;2023-04-26T04:20:28;24.05;;;14.75;;
7359;SDS011;3720;48.274;7.796;2023-04-26T04:23:00;24.80;;;14.73;;
7359;SDS011;3720;48.274;7.796;2023-04-26T04:25:34;23.10;;;15.02;;
7359;SDS011;3720;48.274;7.796;2023-04-26T04:28:07;20.90;;;13.88;;
7359;SDS011;3720;48.274;7.796;2023-04-26T04:30:40;23.95;;;13.68;;
7359;SDS011;3720;48.274;7.796;2023-04-26T04:33:15;20.52;;;13.75;;
7359;SDS011;3720;48.274;7.796;2023-04-26T04:35:48;23.40;;;14.00;;
7359;SDS011;3720;48.274;7.796;2023-04-26T04:38:21;21.75;;;13.95;;
7359;SDS011;3720;48.274;7.796;2023-04-26T04:40:55;20.83;;;13.73;;
7359;SDS011;3720;48.274;7.796;2023-04-26T04:43:27;22.38;;;14.48;;
7359;SDS011;3720;48.274;7.796;2023-04-26T04:45:59;23.02;;;14.77;;
7359;SDS011;3720;48.274;7.796;2023-04-26T04:48:31;24.48;;;14.40;;
7359;SDS011;3720;48.274;7.796;2023-04-26T04:51:03;24.67;;;14.32;;
7359;SDS011;3720;48.274;7.796;2023-04-26T04:53:35;25.70;;;14.27;;
7359;SDS011;3720;48.274;7.796;2023-04-26T04:56:09;23.67;;;14.85;;
7359;SDS011;3720;48.274;7.796;2023-04-26T04:58:41;24.08;;;15.10;;
7359;SDS011;3720;48.274;7.796;2023-04-26T05:01:12;22.00;;;14.13;;
7359;SDS011;3720;48.274;7.796;2023-04-26T05:03:45;25.17;;;15.27;;
7359;SDS011;3720;48.274;7.796;2023-04-26T05:06:17;20.80;;;13.75;;
7359;SDS011;3720;48.274;7.796;2023-04-26T05:08:59;25.25;;;14.98;;
7359;SDS011;3720;48.274;7.796;2023-04-26T05:11:32;25.92;;;15.63;;
7359;SDS011;3720;48.274;7.796;2023-04-26T05:14:04;26.20;;;15.80;;
7359;SDS011;3720;48.274;7.796;2023-04-26T05:16:36;26.73;;;15.93;;
7359;SDS011;3720;48.274;7.796;2023-04-26T05:19:08;24.52;;;15.13;;
7359;SDS011;3720;48.274;7.796;2023-04-26T05:21:42;27.40;;;15.52;;
7359;SDS011;3720;48.274;7.796;2023-04-26T05:24:14;26.33;;;15.35;;
7359;SDS011;3720;48.274;7.796;2023-04-26T05:26:47;28.13;;;15.90;;
7359;SDS011;3720;48.274;7.796;2023-04-26T05:29:19;28.33;;;16.58;;
7359;SDS011;3720;48.274;7.796;2023-04-26T05:31:50;26.25;;;16.00;;
7359;SDS011;3720;48.274;7.796;2023-04-26T05:34:22;29.65;;;17.17;;
7359;SDS011;3720;48.274;7.796;2023-04-26T05:36:54;37.78;;;19.00;;
7359;SDS011;3720;48.274;7.796;2023-04-26T05:39:26;33.42;;;19.90;;
7359;SDS011;3720;48.274;7.796;2023-04-26T05:41:59;37.05;;;21.08;;
7359;SDS011;3720;48.274;7.796;2023-04-26T05:44:32;40.58;;;22.73;;
7359;SDS011;3720;48.274;7.796;2023-04-26T05:47:05;38.30;;;21.73;;
7359;SDS011;3720;48.274;7.796;2023-04-26T05:49:36;34.25;;;19.30;;
7359;SDS011;3720;48.274;7.796;2023-04-26T05:52:08;35.53;;;20.70;;
7359;SDS011;3720;48.274;7.796;2023-04-26T05:54:40;40.33;;;23.50;;
7359;SDS011;3720;48.274;7.796;2023-04-26T05:57:13;41.90;;;24.08;;
7359;SDS011;3720;48.274;7.796;2023-04-26T05:59:47;40.58;;;23.10;;
7359;SDS011;3720;48.274;7.796;2023-04-26T06:02:18;36.20;;;21.70;;
7359;SDS011;3720;48.274;7.796;2023-04-26T06:04:50;35.92;;;21.10;;
7359;SDS011;3720;48.274;7.796;2023-04-26T06:07:23;35.95;;;21.15;;
7359;SDS011;3720;48.274;7.796;2023-04-26T06:09:54;38.20;;;22.63;;
7359;SDS011;3720;48.274;7.796;2023-04-26T06:12:28;42.38;;;22.92;;
7359;SDS011;3720;48.274;7.796;2023-04-26T06:15:00;36.78;;;21.50;;
7359;SDS011;3720;48.274;7.796;2023-04-26T06:17:32;36.97;;;21.92;;
7359;SDS011;3720;48.274;7.796;2023-04-26T06:20:05;35.33;;;21.15;;
7359;SDS011;3720;48.274;7.796;2023-04-26T06:22:38;36.38;;;21.60;;
7359;SDS011;3720;48.274;7.796;2023-04-26T06:25:10;32.55;;;19.65;;
7359;SDS011;3720;48.274;7.796;2023-04-26T06:27:44;38.65;;;22.83;;
7359;SDS011;3720;48.274;7.796;2023-04-26T06:30:16;37.40;;;22.27;;
7359;SDS011;3720;48.274;7.796;2023-04-26T06:32:48;31.58;;;19.60;;
7359;SDS011;3720;48.274;7.796;2023-04-26T06:35:19;32.15;;;19.13;;
7359;SDS011;3720;48.274;7.796;2023-04-26T06:37:53;32.45;;;19.27;;
7359;SDS011;3720;48.274;7.796;2023-04-26T06:40:25;29.38;;;18.70;;
7359;SDS011;3720;48.274;7.796;2023-04-26T06:42:58;29.02;;;18.55;;
7359;SDS011;3720;48.274;7.796;2023-04-26T06:45:30;30.00;;;18.33;;
7359;SDS011;3720;48.274;7.796;2023-04-26T06:48:03;28.75;;;17.80;;
7359;SDS011;3720;48.274;7.796;2023-04-26T06:50:36;28.25;;;17.75;;
7359;SDS011;3720;48.274;7.796;2023-04-26T06:53:09;26.55;;;16.83;;
7359;SDS011;3720;48.274;7.796;2023-04-26T06:55:41;28.42;;;17.23;;
7359;SDS011;3720;48.274;7.796;2023-04-26T06:58:14;30.35;;;18.15;;
7359;SDS011;3720;48.274;7.796;2023-04-26T07:00:46;27.35;;;17.35;;
7359;SDS011;3720;48.274;7.796;2023-04-26T07:03:18;33.95;;;20.98;;
7359;SDS011;3720;48.274;7.796;2023-04-26T07:05:49;30.63;;;18.13;;
7359;SDS011;3720;48.274;7.796;2023-04-26T07:08:21;25.02;;;16.35;;
7359;SDS011;3720;48.274;7.796;2023-04-26T07:10:53;21.30;;;14.80;;
7359;SDS011;3720;48.274;7.796;2023-04-26T07:13:27;18.33;;;13.02;;
7359;SDS011;3720;48.274;7.796;2023-04-26T07:15:58;22.38;;;14.50;;
7359;SDS011;3720;48.274;7.796;2023-04-26T07:18:30;20.45;;;13.05;;
7359;SDS011;3720;48.274;7.796;2023-04-26T07:21:02;18.60;;;12.95;;
7359;SDS011;3720;48.274;7.796;2023-04-26T07:23:34;18.63;;;12.88;;
7359;SDS011;3720;48.274;7.796;2023-04-26T07:26:09;17.20;;;12.85;;
7359;SDS011;3720;48.274;7.796;2023-04-26T07:28:42;17.58;;;12.45;;
7359;SDS011;3720;48.274;7.796;2023-04-26T07:31:14;15.90;;;11.25;;
7359;SDS011;3720;48.274;7.796;2023-04-26T07:33:46;18.23;;;12.45;;
7359;SDS011;3720;48.274;7.796;2023-04-26T07:36:18;18.30;;;12.15;;
7359;SDS011;3720;48.274;7.796;2023-04-26T07:38:50;17.98;;;12.25;;
7359;SDS011;3720;48.274;7.796;2023-04-26T07:41:22;18.20;;;11.80;;
7359;SDS011;3720;48.274;7.796;2023-04-26T07:43:56;17.83;;;11.85;;
7359;SDS011;3720;48.274;7.796;2023-04-26T07:46:28;16.88;;;11.93;;
7359;SDS011;3720;48.274;7.796;2023-04-26T07:49:00;16.40;;;11.48;;
7359;SDS011;3720;48.274;7.796;2023-04-26T07:51:33;14.00;;;10.63;;
7359;SDS011;3720;48.274;7.796;2023-04-26T07:54:06;15.80;;;9.95;;
7359;SDS011;3720;48.274;7.796;2023-04-26T07:56:37;13.25;;;10.98;;
7359;SDS011;3720;48.274;7.796;2023-04-26T07:59:11;13.25;;;9.50;;
7359;SDS011;3720;48.274;7.796;2023-04-26T08:01:43;15.20;;;9.30;;
7359;SDS011;3720;48.274;7.796;2023-04-26T08:04:16;12.68;;;8.88;;
7359;SDS011;3720;48.274;7.796;2023-04-26T08:06:48;15.07;;;9.77;;
7359;SDS011;3720;48.274;7.796;2023-04-26T08:09:19;13.85;;;8.90;;
7359;SDS011;3720;48.274;7.796;2023-04-26T08:11:51;14.65;;;9.27;;
7359;SDS011;3720;48.274;7.796;2023-04-26T08:14:24;12.43;;;8.88;;
7359;SDS011;3720;48.274;7.796;2023-04-26T08:16:57;13.30;;;9.40;;
7359;SDS011;3720;48.274;7.796;2023-04-26T08:19:29;14.35;;;8.95;;
7359;SDS011;3720;48.274;7.796;2023-04-26T08:22:02;12.82;;;9.43;;
7359;SDS011;3720;48.274;7.796;2023-04-26T08:24:34;16.35;;;9.45;;
7359;SDS011;3720;48.274;7.796;2023-04-26T08:27:06;12.60;;;8.80;;
7359;SDS011;3720;48.274;7.796;2023-04-26T08:29:39;13.13;;;9.60;;
7359;SDS011;3720;48.274;7.796;2023-04-26T08:32:12;13.60;;;9.05;;
7359;SDS011;3720;48.274;7.796;2023-04-26T08:34:43;11.43;;;8.50;;
7359;SDS011;3720;48.274;7.796;2023-04-26T08:37:15;14.52;;;10.18;;
7359;SDS011;3720;48.274;7.796;2023-04-26T08:39:47;14.25;;;10.73;;
7359;SDS011;3720;48.274;7.796;2023-04-26T08:42:19;13.02;;;10.15;;
7359;SDS011;3720;48.274;7.796;2023-04-26T08:44:55;15.25;;;10.93;;
7359;SDS011;3720;48.274;7.796;2023-04-26T08:47:33;14.23;;;10.23;;
7359;SDS011;3720;48.274;7.796;2023-04-26T08:50:10;13.98;;;9.93;;
7359;SDS011;3720;48.274;7.796;2023-04-26T08:52:43;14.27;;;10.02;;
7359;SDS011;3720;48.274;7.796;2023-04-26T08:55:19;13.68;;;9.77;;
7359;SDS011;3720;48.274;7.796;2023-04-26T08:57:51;16.48;;;10.18;;
7359;SDS011;3720;48.274;7.796;2023-04-26T09:00:25;11.30;;;8.88;;
7359;SDS011;3720;48.274;7.796;2023-04-26T09:02:57;13.55;;;9.27;;
7359;SDS011;3720;48.274;7.796;2023-04-26T09:05:30;13.13;;;9.35;;
7359;SDS011;3720;48.274;7.796;2023-04-26T09:08:05;13.25;;;9.88;;
7359;SDS011;3720;48.274;7.796;2023-04-26T09:10:38;12.95;;;9.40;;
7359;SDS011;3720;48.274;7.796;2023-04-26T09:13:10;10.57;;;8.88;;
7359;SDS011;3720;48.274;7.796;2023-04-26T09:15:45;11.77;;;8.70;;
7359;SDS011;3720;48.274;7.796;2023-04-26T09:18:19;11.57;;;8.68;;
7359;SDS011;3720;48.274;7.796;2023-04-26T09:21:00;11.30;;;8.45;;
7359;SDS011;3720;48.274;7.796;2023-04-26T09:23:34;11.40;;;8.05;;
7359;SDS011;3720;48.274;7.796;2023-04-26T09:26:16;12.35;;;9.07;;
7359;SDS011;3720;48.274;7.796;2023-04-26T09:28:49;14.02;;;10.00;;
7359;SDS011;3720;48.274;7.796;2023-04-26T09:31:43;14.20;;;8.95;;
7359;SDS011;3720;48.274;7.796;2023-04-26T09:34:16;12.23;;;8.20;;
7359;SDS011;3720;48.274;7.796;2023-04-26T09:36:49;10.82;;;7.97;;
7359;SDS011;3720;48.274;7.796;2023-04-26T09:39:31;12.40;;;8.82;;
7359;SDS011;3720;48.274;7.796;2023-04-26T09:42:04;13.32;;;9.20;;
7359;SDS011;3720;48.274;7.796;2023-04-26T09:44:37;12.10;;;8.57;;
7359;SDS011;3720;48.274;7.796;2023-04-26T09:47:10;11.63;;;8.73;;
7359;SDS011;3720;48.274;7.796;2023-04-26T09:49:43;11.38;;;8.38;;
7359;SDS011;3720;48.274;7.796;2023-04-26T09:52:17;11.10;;;7.70;;
7359;SDS011;3720;48.274;7.796;2023-04-26T09:54:50;12.15;;;7.95;;
7359;SDS011;3720;48.274;7.796;2023-04-26T09:57:23;12.40;;;8.43;;
7359;SDS011;3720;48.274;7.796;2023-04-26T09:59:55;10.98;;;8.13;;
7359;SDS011;3720;48.274;7.796;2023-04-26T10:02:31;11.43;;;8.35;;
7359;SDS011;3720;48.274;7.796;2023-04-26T10:05:03;10.95;;;7.82;;
7359;SDS011;3720;48.274;7.796;2023-04-26T10:07:38;10.68;;;8.00;;
7359;SDS011;3720;48.274;7.796;2023-04-26T10:10:11;11.27;;;8.10;;
7359;SDS011;3720;48.274;7.796;2023-04-26T10:12:43;11.00;;;7.95;;
7359;SDS011;3720;48.274;7.796;2023-04-26T10:15:16;10.85;;;7.72;;
7359;SDS011;3720;48.274;7.796;2023-04-26T10:17:50;11.43;;;8.30;;
7359;SDS011;3720;48.274;7.796;2023-04-26T10:20:22;8.02;;;6.57;;
7359;SDS011;3720;48.274;7.796;2023-04-26T10:22:58;11.07;;;7.57;;
7359;SDS011;3720;48.274;7.796;2023-04-26T10:25:35;9.18;;;6.85;;
7359;SDS011;3720;48.274;7.796;2023-04-26T10:28:08;9.00;;;6.63;;
7359;SDS011;3720;48.274;7.796;2023-04-26T10:30:53;7.93;;;6.50;;
7359;SDS011;3720;48.274;7.796;2023-04-26T10:33:27;8.98;;;6.97;;
7359;SDS011;3720;48.274;7.796;2023-04-26T10:36:01;11.43;;;7.05;;
7359;SDS011;3720;48.274;7.796;2023-04-26T10:38:38;9.52;;;6.20;;
7359;SDS011;3720;48.274;7.796;2023-04-26T10:41:27;7.93;;;6.00;;
7359;SDS011;3720;48.274;7.796;2023-04-26T10:47:26;8.45;;;6.10;;
7359;SDS011;3720;48.274;7.796;2023-04-26T10:50:03;8.15;;;6.05;;
7359;SDS011;3720;48.274;7.796;2023-04-26T10:52:37;7.22;;;6.00;;
7359;SDS011;3720;48.274;7.796;2023-04-26T10:55:39;8.55;;;6.07;;
7359;SDS011;3720;48.274;7.796;2023-04-26T10:58:24;7.80;;;6.03;;
7359;SDS011;3720;48.274;7.796;2023-04-26T11:01:03;7.53;;;5.75;;
7359;SDS011;3720;48.274;7.796;2023-04-26T11:03:36;8.68;;;6.20;;
7359;SDS011;3720;48.274;7.796;2023-04-26T11:06:09;10.27;;;6.05;;
7359;SDS011;3720;48.274;7.796;2023-04-26T11:08:42;6.30;;;4.78;;
7359;SDS011;3720;48.274;7.796;2023-04-26T11:11:15;8.25;;;5.80;;
7359;SDS011;3720;48.274;7.796;2023-04-26T11:13:50;7.30;;;5.40;;
7359;SDS011;3720;48.274;7.796;2023-04-26T11:16:21;7.30;;;4.90;;
7359;SDS011;3720;48.274;7.796;2023-04-26T11:18:56;7.90;;;5.60;;
7359;SDS011;3720;48.274;7.796;2023-04-26T11:21:29;8.38;;;5.40;;
7359;SDS011;3720;48.274;7.796;2023-04-26T11:24:01;5.78;;;4.80;;
7359;SDS011;3720;48.274;7.796;2023-04-26T11:26:33;7.15;;;4.80;;
7359;SDS011;3720;48.274;7.796;2023-04-26T11:29:06;8.05;;;6.13;;
7359;SDS011;3720;48.274;7.796;2023-04-26T11:31:38;8.63;;;6.30;;
7359;SDS011;3720;48.274;7.796;2023-04-26T11:34:10;9.07;;;5.70;;
7359;SDS011;3720;48.274;7.796;2023-04-26T11:36:44;6.65;;;4.63;;
7359;SDS011;3720;48.274;7.796;2023-04-26T11:39:18;6.50;;;4.20;;
7359;SDS011;3720;48.274;7.796;2023-04-26T11:41:55;4.95;;;4.13;;
7359;SDS011;3720;48.274;7.796;2023-04-26T11:44:34;5.57;;;4.30;;
7359;SDS011;3720;48.274;7.796;2023-04-26T11:47:07;6.05;;;4.80;;
7359;SDS011;3720;48.274;7.796;2023-04-26T11:49:40;5.70;;;4.20;;
7359;SDS011;3720;48.274;7.796;2023-04-26T11:52:14;6.60;;;5.03;;
7359;SDS011;3720;48.274;7.796;2023-04-26T11:54:47;7.57;;;4.53;;
7359;SDS011;3720;48.274;7.796;2023-04-26T11:57:19;6.40;;;3.72;;
7359;SDS011;3720;48.274;7.796;2023-04-26T11:59:51;4.55;;;3.67;;
7359;SDS011;3720;48.274;7.796;2023-04-26T12:02:22;4.40;;;3.25;;
7359;SDS011;3720;48.274;7.796;2023-04-26T12:04:57;6.60;;;3.70;;
7359;SDS011;3720;48.274;7.796;2023-04-26T12:07:37;4.07;;;3.28;;
7359;SDS011;3720;48.274;7.796;2023-04-26T12:10:12;5.03;;;3.58;;
7359;SDS011;3720;48.274;7.796;2023-04-26T12:12:48;5.80;;;3.90;;
7359;SDS011;3720;48.274;7.796;2023-04-26T12:15:22;3.22;;;2.35;;
7359;SDS011;3720;48.274;7.796;2023-04-26T12:17:57;3.05;;;2.40;;
7359;SDS011;3720;48.274;7.796;2023-04-26T12:20:31;3.50;;;2.47;;
7359;SDS011;3720;48.274;7.796;2023-04-26T12:23:07;3.70;;;2.28;;
7359;SDS011;3720;48.274;7.796;2023-04-26T12:25:40;5.88;;;2.97;;
7359;SDS011;3720;48.274;7.796;2023-04-26T12:28:22;3.78;;;2.75;;
7359;SDS011;3720;48.274;7.796;2023-04-26T12:30:55;4.75;;;2.60;;
7359;SDS011;3720;48.274;7.796;2023-04-26T12:33:27;6.22;;;3.95;;
7359;SDS011;3720;48.274;7.796;2023-04-26T12:36:04;5.43;;;4.35;;
7359;SDS011;3720;48.274;7.796;2023-04-26T12:38:38;6.25;;;3.60;;
7359;SDS011;3720;48.274;7.796;2023-04-26T12:41:10;6.57;;;4.55;;
7359;SDS011;3720;48.274;7.796;2023-04-26T12:43:42;5.75;;;4.05;;
7359;SDS011;3720;48.274;7.796;2023-04-26T12:46:14;6.03;;;4.18;;
7359;SDS011;3720;48.274;7.796;2023-04-26T12:48:46;4.38;;;3.35;;
7359;SDS011;3720;48.274;7.796;2023-04-26T12:51:18;7.13;;;3.75;;
7359;SDS011;3720;48.274;7.796;2023-04-26T12:53:51;6.30;;;3.20;;
7359;SDS011;3720;48.274;7.796;2023-04-26T12:56:23;5.85;;;3.20;;
7359;SDS011;3720;48.274;7.796;2023-04-26T12:58:56;3.28;;;2.70;;
7359;SDS011;3720;48.274;7.796;2023-04-26T13:01:28;5.25;;;3.03;;
7359;SDS011;3720;48.274;7.796;2023-04-26T13:04:00;4.07;;;2.88;;
7359;SDS011;3720;48.274;7.796;2023-04-26T13:06:35;4.30;;;2.80;;
7359;SDS011;3720;48.274;7.796;2023-04-26T13:09:09;3.97;;;2.85;;
7359;SDS011;3720;48.274;7.796;2023-04-26T13:11:42;4.50;;;3.08;;
7359;SDS011;3720;48.274;7.796;2023-04-26T13:14:14;4.55;;;3.20;;
7359;SDS011;3720;48.274;7.796;2023-04-26T13:16:46;5.97;;;3.50;;
7359;SDS011;3720;48.274;7.796;2023-04-26T13:19:18;5.22;;;3.33;;
7359;SDS011;3720;48.274;7.796;2023-04-26T13:21:50;4.32;;;3.10;;
7359;SDS011;3720;48.274;7.796;2023-04-26T13:24:24;3.90;;;3.22;;
7359;SDS011;3720;48.274;7.796;2023-04-26T13:26:56;3.42;;;2.40;;
7359;SDS011;3720;48.274;7.796;2023-04-26T13:29:28;3.97;;;2.75;;
7359;SDS011;3720;48.274;7.796;2023-04-26T13:32:01;3.72;;;2.63;;
7359;SDS011;3720;48.274;7.796;2023-04-26T13:34:34;4.13;;;2.38;;
7359;SDS011;3720;48.274;7.796;2023-04-26T13:37:06;3.72;;;2.70;;
7359;SDS011;3720;48.274;7.796;2023-04-26T13:39:40;7.13;;;3.85;;
7359;SDS011;3720;48.274;7.796;2023-04-26T13:42:13;4.55;;;2.90;;
7359;SDS011;3720;48.274;7.796;2023-04-26T13:44:45;4.72;;;2.25;;
7359;SDS011;3720;48.274;7.796;2023-04-26T13:47:17;5.07;;;2.72;;
7359;SDS011;3720;48.274;7.796;2023-04-26T13:49:49;2.95;;;2.20;;
7359;SDS011;3720;48.274;7.796;2023-04-26T13:52:21;2.45;;;2.03;;
7359;SDS011;3720;48.274;7.796;2023-04-26T13:54:55;4.00;;;2.25;;
7359;SDS011;3720;48.274;7.796;2023-04-26T13:57:27;5.00;;;2.60;;
7359;SDS011;3720;48.274;7.796;2023-04-26T13:59:59;4.45;;;2.50;;
7359;SDS011;3720;48.274;7.796;2023-04-26T14:02:31;3.78;;;2.60;;
7359;SDS011;3720;48.274;7.796;2023-04-26T14:05:04;3.20;;;2.53;;
7359;SDS011;3720;48.274;7.796;2023-04-26T14:07:38;4.53;;;2.53;;
7359;SDS011;3720;48.274;7.796;2023-04-26T14:10:12;3.85;;;2.65;;
7359;SDS011;3720;48.274;7.796;2023-04-26T14:12:44;3.78;;;2.10;;
7359;SDS011;3720;48.274;7.796;2023-04-26T14:15:16;4.10;;;2.30;;
7359;SDS011;3720;48.274;7.796;2023-04-26T14:17:48;3.78;;;2.22;;
7359;SDS011;3720;48.274;7.796;2023-04-26T14:20:20;4.22;;;2.55;;
7359;SDS011;3720;48.274;7.796;2023-04-26T14:22:52;2.70;;;2.30;;
7359;SDS011;3720;48.274;7.796;2023-04-26T14:25:25;3.88;;;2.92;;
7359;SDS011;3720;48.274;7.796;2023-04-26T14:27:57;4.38;;;2.40;;
7359;SDS011;3720;48.274;7.796;2023-04-26T14:30:29;4.28;;;2.50;;
7359;SDS011;3720;48.274;7.796;2023-04-26T14:33:01;5.13;;;2.72;;
7359;SDS011;3720;48.274;7.796;2023-04-26T14:35:33;4.22;;;2.63;;
7359;SDS011;3720;48.274;7.796;2023-04-26T14:38:05;3.10;;;2.60;;
7359;SDS011;3720;48.274;7.796;2023-04-26T14:40:38;5.35;;;2.97;;
7359;SDS011;3720;48.274;7.796;2023-04-26T14:43:10;3.53;;;2.88;;
7359;SDS011;3720;48.274;7.796;2023-04-26T14:45:42;4.75;;;3.10;;
7359;SDS011;3720;48.274;7.796;2023-04-26T14:48:15;4.93;;;3.30;;
7359;SDS011;3720;48.274;7.796;2023-04-26T14:50:46;4.25;;;3.13;;
7359;SDS011;3720;48.274;7.796;2023-04-26T14:53:18;4.80;;;2.78;;
7359;SDS011;3720;48.274;7.796;2023-04-26T14:55:54;4.72;;;2.80;;
7359;SDS011;3720;48.274;7.796;2023-04-26T14:58:26;3.50;;;2.97;;
7359;SDS011;3720;48.274;7.796;2023-04-26T15:00:58;3.85;;;2.50;;
7359;SDS011;3720;48.274;7.796;2023-04-26T15:03:31;5.65;;;2.55;;
7359;SDS011;3720;48.274;7.796;2023-04-26T15:06:03;4.95;;;3.10;;
7359;SDS011;3720;48.274;7.796;2023-04-26T15:08:35;3.35;;;2.80;;
7359;SDS011;3720;48.274;7.796;2023-04-26T15:11:08;3.83;;;2.47;;
7359;SDS011;3720;48.274;7.796;2023-04-26T15:13:40;3.78;;;2.50;;
7359;SDS011;3720;48.274;7.796;2023-04-26T15:16:12;6.60;;;3.10;;
7359;SDS011;3720;48.274;7.796;2023-04-26T15:18:45;4.25;;;2.90;;
7359;SDS011;3720;48.274;7.796;2023-04-26T15:21:17;3.30;;;2.67;;
7359;SDS011;3720;48.274;7.796;2023-04-26T15:23:50;4.00;;;2.60;;
7359;SDS011;3720;48.274;7.796;2023-04-26T15:26:24;4.13;;;2.40;;
7359;SDS011;3720;48.274;7.796;2023-04-26T15:28:56;3.53;;;2.40;;
7359;SDS011;3720;48.274;7.796;2023-04-26T15:31:28;4.88;;;2.40;;
7359;SDS011;3720;48.274;7.796;2023-04-26T15:34:00;3.03;;;2.15;;
7359;SDS011;3720;48.274;7.796;2023-04-26T15:36:32;4.03;;;2.45;;
7359;SDS011;3720;48.274;7.796;2023-04-26T15:39:05;4.07;;;2.40;;
7359;SDS011;3720;48.274;7.796;2023-04-26T15:41:38;4.13;;;2.50;;